Latest Weather Observations for Roseworthy

IDS60801

Issued at 11:31 pm CDT Monday 23 October 2017 (issued every 30 minutes, with the page automatically refreshed every 10 minutes)

About weather observations | Map of weather stations | Latest weather observations for SA | Other Formats
Station Details ID: 023122 Name: ROSEWORTHY AWS Lat: -34.51 Lon: 138.68 Height: 65.0 m
Data from the previous 72 hours. | See also: Recent months at Roseworthy
Date/Time
CDT
Temp
°C
App
Temp
°C
Dew
Point
°C
Rel
Hum
%
Delta-T
°C
Wind Press
QNH
hPa
Press
MSL
hPa
Rain since
9am
mm
Dir  Spd
km/h
Gust
km/h
Spd
kts
Gust
kts
23/11:30pm 11.7 9.6 8.4 80 1.6 E 9 9 5 5 1015.6 1015.5 0.0
23/11:00pm 12.9 11.5 9.4 79 1.8 SE 7 9 4 5 1015.7 1015.6 0.0
23/10:30pm 11.5 10.5 7.4 76 2.0 ESE 2 7 1 4 1015.8 1015.7 0.0
23/10:00pm 12.2 10.4 7.9 75 2.1 ENE 7 11 4 6 1015.8 1015.7 0.0
23/09:30pm 11.8 9.2 7.7 76 2.0 E 11 13 6 7 1015.8 1015.7 0.0
23/09:00pm 12.2 11.6 7.5 73 2.3 CALM 0 9 0 5 1015.8 1015.7 0.0
23/08:30pm 14.6 13.7 7.9 64 3.3 S 2 6 1 3 1015.6 1015.5 0.0
23/08:00pm 16.3 16.0 8.5 60 4.0 CALM 0 0 0 0 1015.3 1015.2 0.0
23/07:30pm 18.4 17.7 8.7 53 5.0 S 2 7 1 4 1015.2 1015.1 0.0
23/07:00pm 20.3 18.7 8.6 47 6.1 SW 7 7 4 4 1015.2 1015.1 0.0
23/06:30pm 22.4 18.9 7.4 38 7.8 SW 15 20 8 11 1015.3 1015.2 0.0
23/06:00pm 22.1 19.1 7.5 39 7.6 SW 13 19 7 10 1015.0 1014.9 0.0
23/05:30pm 22.5 19.4 7.1 37 8.0 SW 13 19 7 10 1014.9 1014.8 0.0
23/05:00pm 23.5 19.8 6.3 33 8.8 SSW 15 20 8 11 1015.0 1014.9 0.0
23/04:30pm 23.9 19.4 6.2 32 9.1 SSW 19 24 10 13 1015.1 1015.0 0.0
23/04:00pm 25.5 21.2 7.1 31 9.7 SW 19 26 10 14 1015.2 1015.1 0.0
23/03:30pm 24.5 20.1 7.2 33 9.1 SW 20 26 11 14 1015.5 1015.4 0.0
23/03:00pm 25.0 19.3 6.7 31 9.5 SW 26 35 14 19 1015.9 1015.8 0.0
23/02:30pm 26.5 21.6 8.5 32 9.8 WSW 24 32 13 17 1015.9 1015.8 0.0
23/02:00pm 25.8 21.7 4.3 25 10.8 WNW 15 20 8 11 1016.1 1016.0 0.0
23/01:30pm 24.4 20.8 5.2 29 9.7 N 13 24 7 13 1016.5 1016.4 0.0
23/01:00pm 24.7 21.8 6.4 31 9.5 NE 11 20 6 11 1016.7 1016.6 0.0
23/12:30pm 23.7 21.4 7.3 35 8.6 NE 9 20 5 11 1017.2 1017.1 0.0
23/12:00pm 22.5 19.9 7.9 39 7.7 NE 11 20 6 11 1017.6 1017.5 0.0
23/11:30am 21.0 17.6 7.6 42 6.9 NE 15 26 8 14 1018.3 1018.2 0.0
23/11:00am 20.4 17.2 8.4 46 6.3 NE 15 20 8 11 1018.7 1018.6 0.0
23/10:30am 19.3 15.5 8.9 51 5.4 NE 19 26 10 14 1019.0 1018.9 0.0
23/10:00am 17.5 13.6 8.6 56 4.6 ENE 19 26 10 14 1019.5 1019.4 0.0
23/09:30am 15.8 11.9 8.8 63 3.6 NE 19 28 10 15 1019.9 1019.8 0.0
23/09:00am 14.7 10.9 9.1 69 2.9 NE 19 26 10 14 1020.1 1020.0 0.0
23/08:30am 12.8 8.9 9.3 79 1.8 NE 20 26 11 14 1019.8 1019.7 0.0
23/08:00am 11.8 8.4 9.2 84 1.3 ENE 17 24 9 13 1019.9 1019.8 0.0
23/07:30am 10.0 8.0 8.6 91 0.7 NE 9 13 5 7 1020.0 1019.9 0.0
23/07:00am 7.5 3.9 6.6 94 0.4 NE 15 19 8 10 1019.6 1019.5 0.0
23/06:30am 4.2 0.6 3.0 92 0.5 ENE 11 13 6 7 1019.6 1019.5 0.0
23/06:00am 4.2 1.0 3.0 92 0.5 NE 9 11 5 6 1019.3 1019.2 0.0
23/05:30am 4.1 0.5 2.9 92 0.5 NE 11 13 6 7 1019.2 1019.1 0.0
23/05:00am 4.0 1.1 2.5 90 0.6 N 7 7 4 4 1019.5 1019.4 0.0
23/04:30am 4.7 1.2 3.4 91 0.5 NNE 11 13 6 7 1019.3 1019.2 0.0
23/04:00am 4.9 1.0 3.6 91 0.5 NE 13 13 7 7 1019.1 1019.0 0.0
23/03:30am 5.1 1.3 3.9 92 0.5 NNE 13 15 7 8 1019.3 1019.2 0.0
23/03:00am 4.8 2.1 3.5 91 0.5 NE 7 9 4 5 1019.5 1019.4 0.0
23/02:30am 4.6 1.4 3.3 91 0.5 ENE 9 11 5 6 1019.8 1019.7 0.0
23/02:00am 4.8 2.2 3.1 89 0.7 E 6 7 3 4 1020.3 1020.2 0.0
23/01:30am 5.0 2.2 3.3 89 0.7 SE 7 7 4 4 1020.7 1020.6 0.0
23/01:00am 5.6 2.6 3.9 89 0.7 ESE 9 9 5 5 1020.8 1020.7 0.0
23/12:30am 5.2 2.1 3.4 88 0.7 E 9 9 5 5 1020.9 1020.8 0.0
23/12:00am 5.9 4.2 4.1 88 0.8 ENE 2 6 1 3 1021.0 1020.9 0.0
 
Date/Time
CDT
Temp
°C
App
Temp
°C
Dew
Point
°C
Rel
Hum
%
Delta-T
°C
Wind Press
QNH
hPa
Press
MSL
hPa
Rain since
9am
mm
Dir  Spd
km/h
Gust
km/h
Spd
kts
Gust
kts
22/11:30pm 6.0 3.4 4.0 87 0.8 NNE 7 9 4 5 1021.0 1020.9 0.0
22/11:00pm 6.4 3.5 4.4 87 0.9 NE 9 11 5 6 1021.0 1020.9 0.0
22/10:30pm 6.6 5.0 4.3 85 1.0 NE 2 9 1 5 1021.0 1020.9 0.0
22/10:00pm 7.2 6.0 4.5 83 1.2 CALM 0 0 0 0 1021.0 1020.9 0.0
22/09:30pm 8.5 7.4 5.3 80 1.4 CALM 0 0 0 0 1021.0 1020.9 0.0
22/09:00pm 11.0 9.2 7.1 77 1.9 SSW 6 7 3 4 1020.9 1020.8 0.0
22/08:30pm 12.6 10.6 8.7 77 1.9 SW 9 13 5 7 1020.9 1020.8 0.0
22/08:00pm 13.5 10.9 9.2 75 2.2 SSW 13 20 7 11 1020.8 1020.7 0.0
22/07:30pm 14.3 10.6 9.3 72 2.6 SSW 19 26 10 14 1020.7 1020.6 0.0
22/07:00pm 15.3 11.1 9.7 69 2.9 SW 22 30 12 16 1020.4 1020.3 0.0
22/06:30pm 16.1 11.5 9.5 65 3.4 SW 24 35 13 19 1020.3 1020.2 0.0
22/06:00pm 16.7 11.8 9.9 64 3.6 SW 26 35 14 19 1020.2 1020.1 0.0
22/05:30pm 17.8 13.3 9.9 60 4.2 SW 24 35 13 19 1020.1 1020.0 0.0
22/05:00pm 17.4 13.4 9.1 58 4.3 SW 20 28 11 15 1020.1 1020.0 0.0
22/04:30pm 18.5 14.2 9.3 55 4.8 SSW 22 30 12 16 1019.9 1019.8 0.0
22/04:00pm 19.5 15.4 8.5 49 5.7 SW 20 30 11 16 1020.0 1019.9 0.0
22/03:30pm 19.0 14.8 8.4 50 5.5 SW 20 32 11 17 1020.2 1020.1 0.0
22/03:00pm 19.9 15.6 9.2 50 5.7 SW 22 32 12 17 1020.5 1020.4 0.0
22/02:30pm 20.0 16.1 9.3 50 5.7 SW 20 33 11 18 1020.8 1020.7 0.0
22/02:00pm 19.0 15.0 8.9 52 5.3 SW 20 28 11 15 1021.2 1021.1 0.0
22/01:30pm 18.4 14.7 8.1 51 5.3 SW 17 24 9 13 1021.5 1021.4 0.0
22/01:00pm 17.6 13.7 8.5 55 4.7 SSW 19 28 10 15 1021.9 1021.8 0.0
22/12:30pm 17.9 13.9 8.2 53 5.0 SSW 19 28 10 15 1022.1 1022.0 0.0
22/12:00pm 17.3 14.4 8.2 55 4.6 SW 13 22 7 12 1022.4 1022.4 0.0
22/11:30am 17.2 14.0 8.4 56 4.5 SW 15 20 8 11 1022.7 1022.7 0.0
22/11:00am 16.5 13.4 7.2 54 4.6 SSW 13 24 7 13 1023.0 1023.0 0.0
22/10:30am 16.1 12.8 6.3 52 4.8 SSE 13 20 7 11 1023.0 1023.0 0.0
22/10:00am 15.1 11.8 6.4 56 4.2 S 13 20 7 11 1023.3 1023.3 0.0
22/09:30am 14.5 10.7 5.8 56 4.1 S 15 24 8 13 1023.3 1023.3 0.0
22/09:00am 13.8 10.0 5.7 58 3.8 SSW 15 22 8 12 1023.4 1023.4 0.0
22/08:30am 13.3 10.1 6.9 65 3.1 S 13 17 7 9 1023.4 1023.4 0.0
22/08:00am 11.8 10.4 7.1 73 2.3 S 4 9 2 5 1023.3 1023.3 0.0
22/07:30am 10.1 9.6 7.9 86 1.1 CALM 0 0 0 0 1023.0 1023.0 0.0
22/07:00am 8.0 7.2 6.6 91 0.6 CALM 0 0 0 0 1022.8 1022.8 0.0
22/06:30am 6.4 5.3 4.9 90 0.7 CALM 0 0 0 0 1022.7 1022.7 0.0
22/06:00am 5.7 4.4 4.3 91 0.6 CALM 0 0 0 0 1022.7 1022.7 0.0
22/05:30am 4.6 3.0 2.6 87 0.8 CALM 0 0 0 0 1022.6 1022.6 0.0
22/05:00am 6.5 5.3 4.5 87 0.9 CALM 0 0 0 0 1022.6 1022.6 0.0
22/04:30am 5.5 4.1 3.3 86 0.9 CALM 0 0 0 0 1022.7 1022.7 0.0
22/04:00am 5.9 3.2 2.5 79 1.4 S 6 7 3 4 1022.8 1022.8 0.0
22/03:30am 8.2 5.9 5.7 84 1.1 S 7 9 4 5 1022.9 1022.9 0.0
22/03:00am 8.9 6.3 6.0 82 1.3 S 9 11 5 6 1023.1 1023.1 0.0
22/02:30am 9.0 6.7 5.6 79 1.5 S 7 11 4 6 1023.2 1023.2 0.0
22/02:00am 10.6 8.1 6.6 76 1.9 SSW 9 11 5 6 1023.7 1023.7 0.0
22/01:30am 11.5 8.7 6.8 73 2.2 SSW 11 17 6 9 1024.0 1024.0 0.0
22/01:00am 10.4 7.8 6.2 75 2.0 S 9 13 5 7 1024.5 1024.5 0.0
22/12:30am 12.0 8.8 6.9 71 2.4 SSW 13 20 7 11 1024.7 1024.7 0.0
22/12:00am 12.4 8.4 6.7 68 2.7 SSW 17 26 9 14 1024.9 1024.9 0.0
 
Date/Time
CDT
Temp
°C
App
Temp
°C
Dew
Point
°C
Rel
Hum
%
Delta-T
°C
Wind Press
QNH
hPa
Press
MSL
hPa
Rain since
9am
mm
Dir  Spd
km/h
Gust
km/h
Spd
kts
Gust
kts
21/11:30pm 12.8 9.4 5.7 62 3.3 SSE 13 17 7 9 1025.0 1025.0 0.0
21/11:00pm 12.9 8.3 5.6 61 3.4 SSW 19 24 10 13 1025.2 1025.2 0.0
21/10:30pm 12.9 9.4 5.6 61 3.4 S 13 20 7 11 1025.3 1025.3 0.0
21/10:00pm 12.8 8.9 5.5 61 3.4 S 15 24 8 13 1025.5 1025.5 0.0
21/09:30pm 10.9 8.1 5.0 67 2.7 SSW 9 13 5 7 1025.6 1025.6 0.0
21/09:00pm 12.0 8.1 5.4 64 3.0 S 15 22 8 12 1025.6 1025.6 0.0
21/08:30pm 12.0 8.1 5.4 64 3.0 SSW 15 20 8 11 1025.4 1025.4 0.0
21/08:00pm 12.6 7.9 6.0 64 3.1 SSW 20 26 11 14 1025.1 1025.1 0.0
21/07:30pm 13.5 8.4 6.1 61 3.5 SSW 22 32 12 17 1024.9 1024.9 0.0
21/07:00pm 14.6 9.2 6.4 58 4.0 SW 24 35 13 19 1024.8 1024.8 0.0
21/06:30pm 15.5 9.9 7.3 58 4.0 SW 26 39 14 21 1024.7 1024.7 0.0
21/06:00pm 16.1 9.3 7.1 55 4.4 SW 32 44 17 24 1024.7 1024.7 0.0
21/05:49pm 16.3 9.9 7.0 54 4.6 SW 30 48 16 26 1024.7 1024.7 0.0
21/05:30pm 16.9 10.6 7.3 53 4.8 SW 30 41 16 22 1024.7 1024.7 0.0
21/05:00pm 17.5 11.6 7.5 52 5.1 SW 28 37 15 20 1024.7 1024.7 0.0
21/04:30pm 18.2 11.8 7.0 48 5.6 SW 30 44 16 24 1024.8 1024.8 0.0
21/04:00pm 18.0 11.9 6.8 48 5.6 SW 28 39 15 21 1025.0 1025.0 0.0
21/03:30pm 18.7 13.4 6.9 46 5.9 SW 24 37 13 20 1025.2 1025.2 0.0
21/03:00pm 18.7 13.5 7.2 47 5.8 SW 24 35 13 19 1025.6 1025.6 0.0
21/02:30pm 19.3 13.7 7.1 45 6.2 SW 26 35 14 19 1026.0 1026.0 0.0
21/02:00pm 18.7 14.1 6.5 45 6.1 SW 20 30 11 16 1026.3 1026.3 0.0
21/01:30pm 19.4 14.8 6.5 43 6.4 WSW 20 28 11 15 1026.7 1026.7 0.0
21/01:00pm 19.3 15.6 4.3 37 7.2 SSW 13 26 7 14 1026.8 1026.8 0.0
21/12:30pm 19.2 15.6 4.9 39 6.9 S 13 24 7 13 1027.2 1027.2 0.0
21/12:00pm 18.0 14.4 4.9 42 6.3 SW 13 20 7 11 1027.8 1027.8 0.0
21/11:30am 17.3 14.4 4.9 44 5.9 S 9 19 5 10 1028.1 1028.1 0.0
21/11:00am 16.5 13.3 5.2 47 5.4 SW 11 20 6 11 1028.6 1028.6 0.0
21/10:30am 16.2 13.1 5.5 49 5.1 SSE 11 19 6 10 1029.5 1029.4 0.0
21/10:00am 14.8 11.6 5.1 52 4.6 SE 11 20 6 11 1029.5 1029.4 0.0
21/09:30am 13.8 9.8 4.9 55 4.1 SE 15 24 8 13 1029.5 1029.4 0.0
21/09:00am 13.0 9.5 5.4 60 3.5 SE 13 17 7 9 1029.7 1029.6 0.0
21/08:30am 12.1 9.0 5.5 64 3.0 SE 11 15 6 8 1029.7 1029.6 0.0
21/08:00am 10.8 8.6 6.2 73 2.2 SE 7 13 4 7 1029.5 1029.4 0.0
21/07:30am 7.9 7.1 6.7 92 0.6 CALM 0 0 0 0 1029.3 1029.3 0.0
21/07:00am 4.9 1.9 3.9 93 0.4 E 9 11 5 6 1029.2 1029.2 0.0
21/06:30am 2.3 0.4 0.8 90 0.6 CALM 0 0 0 0 1029.1 1029.1 0.0
21/06:00am 1.5 -0.5 -0.1 89 0.6 CALM 0 0 0 0 1028.7 1028.7 0.0
21/05:30am 2.0 -1.6 0.4 89 0.6 ENE 9 11 5 6 1028.7 1028.7 0.0
21/05:00am 3.5 1.8 1.9 89 0.6 CALM 0 0 0 0 1028.9 1028.9 0.0
21/04:30am 3.8 0.8 2.0 88 0.7 ENE 7 9 4 5 1028.9 1028.9 0.0
21/04:00am 4.3 1.4 2.7 89 0.6 ENE 7 11 4 6 1029.1 1029.1 0.0
21/03:30am 3.8 1.0 2.3 90 0.6 ESE 6 7 3 4 1029.3 1029.3 0.0
21/03:00am 2.8 -0.4 1.0 88 0.7 ESE 7 9 4 5 1029.5 1029.4 0.0
21/02:30am 2.8 -0.2 1.0 88 0.7 ESE 6 6 3 3 1029.7 1029.6 0.0
21/02:00am 2.6 -0.6 0.7 87 0.7 E 7 9 4 5 1029.8 1029.7 0.0
21/01:30am 3.1 -0.1 0.8 85 0.9 E 7 9 4 5 1030.1 1030.0 0.0
21/01:00am 3.9 1.0 1.6 85 0.9 ESE 6 7 3 4 1030.4 1030.3 0.0
21/12:30am 6.9 3.9 4.0 82 1.2 SSE 9 11 5 6 1030.5 1030.4 0.0
21/12:00am 6.1 3.5 3.3 82 1.2 SSE 6 9 3 5 1030.6 1030.5 0.0

Other Formats:

Comma delimited format used in spreadsheet applications
http://www.bom.gov.au/fwo/IDS60801/IDS60801.95671.axf

JavaScript Object Notation format (JSON) in row-major order
http://www.bom.gov.au/fwo/IDS60801/IDS60801.95671.json